createdAt,value
2022-09-06T00:00:43.985Z,11.19
2022-09-06T00:03:29.878Z,11.33
2022-09-06T00:06:18.183Z,11.20
2022-09-06T00:09:04.422Z,11.18
2022-09-06T00:11:50.419Z,11.34
2022-09-06T00:14:36.297Z,11.29
2022-09-06T00:17:22.416Z,11.31
2022-09-06T00:20:09.450Z,11.26
2022-09-06T00:22:59.704Z,11.06
2022-09-06T00:25:45.545Z,11.03
2022-09-06T00:28:31.460Z,11.06
2022-09-06T00:31:19.976Z,11.10
2022-09-06T00:34:05.994Z,10.93
2022-09-06T00:36:52.370Z,11.04
2022-09-06T00:39:37.743Z,10.94
2022-09-06T00:42:24.612Z,10.96
2022-09-06T00:45:11.818Z,10.92
2022-09-06T00:47:59.449Z,10.73
2022-09-06T00:50:46.674Z,10.87
2022-09-06T00:53:33.334Z,10.80
2022-09-06T00:56:19.407Z,10.77
2022-09-06T00:59:05.792Z,10.82
2022-09-06T01:01:52.516Z,10.67
2022-09-06T01:04:41.958Z,10.62
2022-09-06T01:07:51.776Z,10.66
2022-09-06T01:10:43.496Z,10.75
2022-09-06T01:13:54.595Z,10.72
2022-09-06T01:17:03.713Z,10.70
2022-09-06T01:20:27.457Z,10.64
2022-09-06T01:23:35.519Z,10.60
2022-09-06T01:26:36.421Z,10.57
2022-09-06T01:29:22.302Z,10.59
2022-09-06T01:32:42.567Z,10.31
2022-09-06T01:35:55.255Z,10.47
2022-09-06T01:38:41.026Z,10.42
2022-09-06T01:41:27.468Z,10.41
2022-09-06T01:44:13.338Z,10.30
2022-09-06T01:47:36.718Z,10.34
2022-09-06T01:50:45.420Z,10.30
2022-09-06T01:53:39.474Z,10.24
2022-09-06T01:56:39.586Z,10.21
2022-09-06T01:59:26.281Z,10.03
2022-09-06T02:02:24.958Z,10.11
2022-09-06T02:05:22.969Z,10.15
2022-09-06T02:08:31.133Z,10.15
2022-09-06T02:11:17.259Z,10.11
2022-09-06T02:14:08.219Z,10.08
2022-09-06T02:16:54.451Z,10.13
2022-09-06T02:19:45.058Z,10.11
2022-09-06T02:22:35.276Z,10.18
2022-09-06T02:25:27.732Z,9.96
2022-09-06T02:28:14.272Z,9.95
2022-09-06T02:31:03.359Z,10.06
2022-09-06T02:33:50.747Z,10.00
2022-09-06T02:36:37.437Z,10.04
2022-09-06T02:39:23.118Z,9.98
2022-09-06T02:42:10.695Z,10.00
2022-09-06T02:45:00.374Z,10.20
2022-09-06T02:47:45.645Z,10.13
2022-09-06T02:50:32.411Z,9.99
2022-09-06T02:53:18.286Z,10.11
2022-09-06T02:56:04.406Z,10.12
2022-09-06T02:58:50.207Z,9.91
2022-09-06T03:01:36.205Z,9.99
2022-09-06T03:04:22.003Z,9.82
2022-09-06T03:07:08.055Z,9.90
2022-09-06T03:09:54.023Z,9.85
2022-09-06T03:12:40.217Z,9.65
2022-09-06T03:15:26.100Z,9.64
2022-09-06T03:18:13.991Z,9.71
2022-09-06T03:21:01.071Z,9.54
2022-09-06T03:23:47.382Z,9.63
2022-09-06T03:26:33.467Z,9.59
2022-09-06T03:29:19.605Z,9.53
2022-09-06T03:32:05.760Z,9.38
2022-09-06T03:34:51.682Z,9.54
2022-09-06T03:37:37.929Z,9.51
2022-09-06T03:40:24.120Z,9.30
2022-09-06T03:43:09.945Z,9.43
2022-09-06T03:45:57.529Z,9.37
2022-09-06T03:48:43.343Z,9.27
2022-09-06T03:51:32.877Z,9.16
2022-09-06T03:54:18.512Z,9.46
2022-09-06T03:57:04.896Z,9.39
2022-09-06T03:59:51.061Z,9.44
2022-09-06T04:02:39.992Z,9.40
2022-09-06T04:05:25.670Z,9.39
2022-09-06T04:08:11.962Z,9.38
2022-09-06T04:10:58.681Z,9.43
2022-09-06T04:13:44.984Z,9.27
2022-09-06T04:16:31.249Z,9.29
2022-09-06T04:19:17.369Z,9.15
2022-09-06T04:22:03.863Z,8.99
2022-09-06T04:24:50.327Z,9.30
2022-09-06T04:27:36.488Z,9.15
2022-09-06T04:30:23.175Z,9.28
2022-09-06T04:33:09.379Z,9.25
2022-09-06T04:35:56.979Z,9.31
2022-09-06T04:38:43.965Z,9.32
2022-09-06T04:41:30.310Z,9.35
2022-09-06T04:44:16.285Z,9.27
2022-09-06T04:47:14.927Z,9.53
2022-09-06T04:50:00.739Z,9.72
2022-09-06T04:52:47.146Z,9.97
2022-09-06T04:55:34.221Z,10.19
2022-09-06T04:58:20.430Z,10.55
2022-09-06T05:01:06.252Z,10.58
2022-09-06T05:03:56.571Z,10.77
2022-09-06T05:06:43.255Z,11.07
2022-09-06T05:09:29.813Z,10.98
2022-09-06T05:12:15.602Z,11.21
2022-09-06T05:15:01.837Z,11.26
2022-09-06T05:17:48.518Z,11.14
2022-09-06T05:20:34.314Z,11.22
2022-09-06T05:23:21.751Z,11.37
2022-09-06T05:26:08.307Z,11.43
2022-09-06T05:28:53.967Z,11.77
2022-09-06T05:31:40.565Z,11.90
2022-09-06T05:34:26.145Z,11.96
2022-09-06T05:37:12.752Z,12.20
2022-09-06T05:40:23.158Z,12.62
2022-09-06T05:43:09.647Z,12.79
2022-09-06T05:45:55.725Z,12.67
2022-09-06T05:48:43.021Z,13.00
2022-09-06T05:51:32.530Z,13.31
2022-09-06T05:54:19.089Z,13.32
2022-09-06T05:57:06.918Z,13.24
2022-09-06T05:59:55.866Z,13.59
2022-09-06T06:02:41.990Z,13.84
2022-09-06T06:05:28.668Z,14.00
2022-09-06T06:08:14.075Z,14.09
2022-09-06T06:11:00.785Z,13.96
2022-09-06T06:13:46.874Z,14.16
2022-09-06T06:16:37.930Z,14.37
2022-09-06T06:19:27.680Z,14.55
2022-09-06T06:22:24.573Z,14.76
2022-09-06T06:25:29.205Z,14.94
2022-09-06T06:28:18.900Z,15.09
2022-09-06T06:31:09.226Z,15.23
2022-09-06T06:37:48.282Z,15.67
2022-09-06T06:40:38.617Z,15.67
2022-09-06T06:44:03.995Z,15.71
2022-09-06T06:46:52.721Z,15.69
2022-09-06T06:49:38.642Z,15.81
2022-09-06T06:52:24.675Z,15.69
2022-09-06T06:55:10.288Z,15.96
2022-09-06T06:57:56.146Z,15.91
2022-09-06T07:00:42.832Z,16.16
2022-09-06T07:03:29.528Z,16.30
2022-09-06T07:06:15.420Z,16.39
2022-09-06T07:09:02.045Z,16.38
2022-09-06T07:11:51.584Z,16.43
2022-09-06T07:14:37.406Z,16.34
2022-09-06T07:17:23.298Z,16.42
2022-09-06T07:26:19.414Z,16.62
2022-09-06T07:29:06.527Z,16.80
2022-09-06T07:32:12.248Z,16.63
2022-09-06T07:34:58.582Z,16.78
2022-09-06T07:37:55.509Z,16.82
2022-09-06T07:40:41.178Z,16.78
2022-09-06T07:43:28.306Z,17.05
2022-09-06T07:46:16.722Z,16.96
2022-09-06T07:49:05.288Z,17.20
2022-09-06T07:51:50.844Z,17.37
2022-09-06T07:54:37.564Z,17.38
2022-09-06T07:57:23.751Z,17.31
2022-09-06T08:00:13.822Z,17.37
2022-09-06T08:03:00.532Z,17.50
2022-09-06T08:11:44.265Z,17.80
2022-09-06T08:14:38.020Z,17.91
2022-09-06T08:17:27.725Z,18.02
2022-09-06T08:20:13.806Z,18.10
2022-09-06T08:23:02.035Z,18.37
2022-09-06T08:25:58.295Z,18.42
2022-09-06T08:28:45.786Z,18.50
2022-09-06T08:31:35.310Z,18.47
2022-09-06T08:34:22.438Z,18.31
2022-09-06T08:37:08.380Z,18.45
2022-09-06T08:39:56.795Z,18.49
2022-09-06T08:42:44.697Z,18.43
2022-09-06T08:45:31.306Z,18.41
2022-09-06T08:48:17.828Z,18.72
2022-09-06T08:51:23.298Z,18.74
2022-09-06T08:54:18.198Z,18.70
2022-09-06T08:57:40.464Z,18.70
2022-09-06T09:00:27.590Z,18.71
2022-09-06T09:03:25.730Z,18.67
2022-09-06T09:06:11.797Z,18.52
2022-09-06T09:09:02.793Z,18.78
2022-09-06T09:11:51.344Z,18.78
2022-09-06T09:14:39.202Z,18.93
2022-09-06T09:20:41.021Z,19.16
2022-09-06T09:23:30.549Z,19.19
2022-09-06T09:26:16.728Z,19.05
2022-09-06T09:29:15.521Z,19.16
2022-09-06T09:32:05.741Z,19.23
2022-09-06T09:35:16.436Z,19.15
2022-09-06T09:38:25.750Z,19.45
2022-09-06T09:41:25.509Z,19.48
2022-09-06T09:44:18.331Z,19.59
2022-09-06T09:47:22.743Z,19.37
2022-09-06T09:50:32.972Z,19.51
2022-09-06T09:53:22.369Z,19.64
2022-09-06T09:56:09.105Z,19.74
2022-09-06T09:58:56.211Z,19.70
2022-09-06T10:01:42.032Z,19.62
2022-09-06T10:07:26.536Z,19.91
2022-09-06T10:10:27.243Z,20.08
2022-09-06T10:13:35.060Z,20.22
2022-09-06T10:16:44.293Z,20.39
2022-09-06T10:19:42.420Z,20.39
2022-09-06T10:22:58.771Z,20.45
2022-09-06T10:25:58.398Z,20.37
2022-09-06T10:28:46.076Z,20.33
2022-09-06T10:32:03.390Z,20.37
2022-09-06T10:35:05.190Z,20.60
2022-09-06T10:38:14.211Z,20.53
2022-09-06T10:41:29.579Z,20.56
2022-09-06T10:44:29.750Z,20.73
2022-09-06T10:47:17.123Z,20.44
2022-09-06T10:50:05.160Z,20.42
2022-09-06T10:52:52.127Z,20.24
2022-09-06T10:55:41.048Z,20.49
2022-09-06T10:58:29.523Z,20.65
2022-09-06T11:01:39.216Z,20.61
2022-09-06T11:10:50.298Z,20.93
2022-09-06T11:13:36.585Z,20.89
2022-09-06T11:16:26.219Z,20.76
2022-09-06T11:19:22.759Z,20.72
2022-09-06T11:22:25.162Z,20.81
2022-09-06T11:25:40.145Z,20.52
2022-09-06T11:28:46.461Z,20.62
2022-09-06T11:34:44.089Z,20.56
2022-09-06T11:37:36.496Z,20.48
2022-09-06T11:40:27.799Z,20.68
2022-09-06T11:43:47.244Z,20.67
2022-09-06T11:46:36.227Z,20.72
2022-09-06T11:49:34.135Z,20.71
2022-09-06T11:52:50.979Z,20.68
2022-09-06T11:55:43.872Z,20.51
2022-09-06T11:58:41.537Z,20.73
2022-09-06T12:01:28.011Z,20.71
2022-09-06T12:04:13.850Z,20.65
2022-09-06T12:07:10.281Z,20.74
2022-09-06T12:09:56.164Z,20.72
2022-09-06T12:12:45.989Z,20.68
2022-09-06T12:15:45.488Z,20.63
2022-09-06T12:18:47.059Z,20.80
2022-09-06T12:21:52.354Z,20.77
2022-09-06T12:24:53.746Z,20.74
2022-09-06T12:27:51.338Z,20.63
2022-09-06T12:30:42.828Z,20.79
2022-09-06T12:33:38.891Z,20.81
2022-09-06T12:36:31.069Z,20.76
2022-09-06T12:39:17.659Z,20.74
2022-09-06T12:42:11.927Z,20.63
2022-09-06T12:44:58.065Z,20.75
2022-09-06T12:47:45.321Z,20.84
2022-09-06T12:50:31.943Z,20.79
2022-09-06T12:53:25.038Z,21.01
2022-09-06T12:56:14.522Z,20.88
2022-09-06T12:59:14.141Z,20.96
2022-09-06T13:02:06.306Z,20.83
2022-09-06T13:04:54.532Z,20.73
2022-09-06T13:07:46.982Z,20.96
2022-09-06T13:10:34.804Z,20.92
2022-09-06T13:13:23.742Z,20.61
2022-09-06T13:16:10.256Z,20.66
2022-09-06T13:19:11.808Z,20.65
2022-09-06T13:21:58.840Z,20.73
2022-09-06T13:24:47.631Z,20.76
2022-09-06T13:27:36.774Z,20.56
2022-09-06T13:30:50.029Z,20.70
2022-09-06T13:33:37.839Z,20.74
2022-09-06T13:36:27.442Z,20.74
2022-09-06T13:39:33.158Z,20.52
2022-09-06T13:42:28.307Z,20.56
2022-09-06T13:45:29.134Z,20.50
2022-09-06T13:48:28.797Z,20.50
2022-09-06T13:51:21.351Z,20.56
2022-09-06T13:54:11.732Z,20.41
2022-09-06T13:56:57.920Z,20.56
2022-09-06T13:59:43.439Z,20.53
2022-09-06T14:02:29.361Z,20.41
2022-09-06T14:05:16.098Z,20.31
2022-09-06T14:08:02.746Z,20.17
2022-09-06T14:10:48.536Z,20.24
2022-09-06T14:13:34.949Z,20.29
2022-09-06T14:16:21.415Z,20.27
2022-09-06T14:19:07.726Z,20.15
2022-09-06T14:21:53.521Z,20.23
2022-09-06T14:24:39.589Z,20.16
2022-09-06T14:27:25.523Z,20.09
2022-09-06T14:30:12.609Z,20.14
2022-09-06T14:32:58.755Z,20.04
2022-09-06T14:35:44.858Z,20.00
2022-09-06T14:38:30.804Z,20.01
2022-09-06T14:41:18.943Z,19.87
2022-09-06T14:44:04.794Z,19.89
2022-09-06T14:46:53.644Z,19.75
2022-09-06T14:49:39.528Z,19.80
2022-09-06T14:52:25.898Z,19.92
2022-09-06T14:55:11.637Z,19.66
2022-09-06T14:57:59.524Z,19.91
2022-09-06T15:00:46.617Z,19.91
2022-09-06T15:03:35.771Z,19.92
2022-09-06T15:06:22.458Z,19.92
2022-09-06T15:09:08.557Z,19.83
2022-09-06T15:11:54.736Z,19.92
2022-09-06T15:14:41.487Z,19.86
2022-09-06T15:17:26.944Z,19.76
2022-09-06T15:20:19.712Z,19.75
2022-09-06T15:23:56.190Z,19.67
2022-09-06T15:26:45.167Z,19.54
2022-09-06T15:29:30.925Z,19.58
2022-09-06T15:32:18.950Z,19.62
2022-09-06T15:35:07.266Z,19.40
2022-09-06T15:37:55.505Z,19.48
2022-09-06T15:40:50.176Z,19.42
2022-09-06T15:44:28.821Z,19.33
2022-09-06T15:51:36.847Z,18.97
2022-09-06T15:54:43.769Z,19.00
2022-09-06T15:57:30.484Z,18.98
2022-09-06T16:00:17.877Z,18.95
2022-09-06T16:03:09.344Z,18.93
2022-09-06T16:06:25.810Z,18.75
2022-09-06T16:09:14.682Z,18.87
2022-09-06T16:12:04.869Z,18.79
2022-09-06T16:14:51.347Z,18.66
2022-09-06T16:17:37.474Z,18.70
2022-09-06T16:20:23.405Z,18.57
2022-09-06T16:23:08.809Z,18.44
2022-09-06T16:25:58.473Z,18.28
2022-09-06T16:28:44.551Z,18.50
2022-09-06T16:31:30.916Z,18.33
2022-09-06T16:34:17.316Z,18.35
2022-09-06T16:37:08.264Z,18.38
2022-09-06T16:39:53.903Z,18.28
2022-09-06T16:42:40.643Z,18.11
2022-09-06T16:45:25.983Z,18.04
2022-09-06T16:48:12.323Z,17.85
2022-09-06T16:50:58.459Z,18.06
2022-09-06T16:53:46.386Z,17.89
2022-09-06T16:56:34.770Z,17.81
2022-09-06T16:59:21.724Z,17.86
2022-09-06T17:02:07.209Z,17.62
2022-09-06T17:04:54.132Z,17.51
2022-09-06T17:07:40.521Z,17.68
2022-09-06T17:10:26.739Z,17.59
2022-09-06T17:13:13.240Z,17.51
2022-09-06T17:16:22.120Z,17.48
2022-09-06T17:19:09.209Z,17.38
2022-09-06T17:21:55.029Z,17.19
2022-09-06T17:24:41.498Z,17.15
2022-09-06T17:27:27.656Z,17.21
2022-09-06T17:30:13.619Z,16.95
2022-09-06T17:32:59.689Z,17.06
2022-09-06T17:35:46.135Z,16.95
2022-09-06T17:38:32.284Z,16.82
2022-09-06T17:41:38.604Z,16.68
2022-09-06T17:44:26.115Z,16.71
2022-09-06T17:47:13.744Z,16.59
2022-09-06T17:50:00.950Z,16.55
2022-09-06T17:52:46.616Z,16.54
2022-09-06T17:55:32.546Z,16.40
2022-09-06T17:58:19.931Z,16.27
2022-09-06T18:01:09.378Z,16.14
2022-09-06T18:03:55.841Z,16.24
2022-09-06T18:06:43.178Z,16.21
2022-09-06T18:09:28.851Z,16.01
2022-09-06T18:12:15.578Z,16.14
2022-09-06T18:15:02.324Z,15.96
2022-09-06T18:17:48.972Z,15.90
2022-09-06T18:20:34.846Z,15.83
2022-09-06T18:23:21.287Z,16.02
2022-09-06T18:26:08.008Z,15.81
2022-09-06T18:28:54.914Z,15.85
2022-09-06T18:31:41.249Z,15.84
2022-09-06T18:34:27.357Z,15.63
2022-09-06T18:37:12.814Z,15.71
2022-09-06T18:39:59.129Z,15.55
2022-09-06T18:42:44.881Z,15.49
2022-09-06T18:45:34.472Z,15.40
2022-09-06T18:48:20.281Z,15.29
2022-09-06T18:51:11.850Z,15.21
2022-09-06T18:53:58.328Z,15.21
2022-09-06T18:56:49.016Z,15.06
2022-09-06T18:59:34.793Z,15.16
2022-09-06T19:02:23.511Z,14.96
2022-09-06T19:05:09.662Z,15.10
2022-09-06T19:07:55.788Z,15.07
2022-09-06T19:10:41.479Z,14.92
2022-09-06T19:13:29.964Z,14.83
2022-09-06T19:16:15.514Z,14.91
2022-09-06T19:19:07.190Z,14.86
2022-09-06T19:21:54.611Z,14.83
2022-09-06T19:24:40.767Z,14.77
2022-09-06T19:27:26.903Z,14.71
2022-09-06T19:30:13.265Z,14.59
2022-09-06T19:32:59.258Z,14.47
2022-09-06T19:36:07.638Z,14.29
2022-09-06T19:39:03.626Z,14.52
2022-09-06T19:41:51.397Z,14.45
2022-09-06T19:44:44.059Z,14.32
2022-09-06T19:47:29.908Z,14.16
2022-09-06T19:50:16.049Z,14.08
2022-09-06T19:53:06.618Z,14.05
2022-09-06T19:55:53.236Z,14.11
2022-09-06T19:58:40.063Z,14.17
2022-09-06T20:01:29.236Z,14.10
2022-09-06T20:04:15.856Z,14.06
2022-09-06T20:07:02.762Z,14.00
2022-09-06T20:09:52.429Z,13.95
2022-09-06T20:12:39.736Z,14.02
2022-09-06T20:15:26.851Z,14.08
2022-09-06T20:18:12.584Z,14.00
2022-09-06T20:21:01.125Z,13.98
2022-09-06T20:23:51.787Z,13.94
2022-09-06T20:26:37.910Z,13.92
2022-09-06T20:29:23.803Z,13.90
2022-09-06T20:32:09.750Z,13.84
2022-09-06T20:34:55.232Z,13.53
2022-09-06T20:37:41.283Z,13.62
2022-09-06T20:40:27.617Z,13.73
2022-09-06T20:43:14.299Z,13.67
2022-09-06T20:46:03.664Z,13.91
2022-09-06T20:48:50.873Z,13.82
2022-09-06T20:51:37.164Z,13.64
2022-09-06T20:54:23.274Z,13.68
2022-09-06T20:57:14.739Z,13.69
2022-09-06T21:00:02.609Z,13.65
2022-09-06T21:02:51.883Z,13.42
2022-09-06T21:05:42.563Z,13.52
2022-09-06T21:08:32.865Z,13.56
2022-09-06T21:11:21.567Z,13.53
2022-09-06T21:14:08.161Z,13.41
2022-09-06T21:16:55.123Z,13.46
2022-09-06T21:19:42.905Z,13.37
2022-09-06T21:22:31.159Z,13.35
2022-09-06T21:25:16.742Z,13.20
2022-09-06T21:28:02.713Z,13.37
2022-09-06T21:30:49.629Z,13.36
2022-09-06T21:33:36.887Z,13.11
2022-09-06T21:36:29.943Z,13.26
2022-09-06T21:39:16.122Z,13.23
2022-09-06T21:42:01.646Z,13.21
2022-09-06T21:44:48.021Z,13.25
2022-09-06T21:47:34.332Z,13.25
2022-09-06T21:50:20.812Z,13.21
2022-09-06T21:53:06.663Z,12.99
2022-09-06T21:55:52.403Z,13.12
2022-09-06T21:58:38.052Z,12.96
2022-09-06T22:01:25.958Z,12.96
2022-09-06T22:04:12.946Z,12.92
2022-09-06T22:06:59.047Z,12.98
2022-09-06T22:09:45.088Z,12.98
2022-09-06T22:12:31.051Z,12.72
2022-09-06T22:15:17.222Z,12.75
2022-09-06T22:18:03.505Z,12.84
2022-09-06T22:20:49.267Z,12.58
2022-09-06T22:23:35.716Z,12.70
2022-09-06T22:26:22.052Z,12.54
2022-09-06T22:29:09.676Z,12.45
2022-09-06T22:31:55.783Z,12.47
2022-09-06T22:34:42.608Z,12.52
2022-09-06T22:37:28.529Z,12.35
2022-09-06T22:40:14.604Z,12.47
2022-09-06T22:43:00.578Z,12.48
2022-09-06T22:45:51.335Z,12.47
2022-09-06T22:48:37.848Z,12.59
2022-09-06T22:51:24.440Z,12.33
2022-09-06T22:54:09.987Z,12.48
2022-09-06T22:56:55.797Z,12.43
2022-09-06T22:59:41.400Z,12.39
2022-09-06T23:02:27.556Z,12.46
2022-09-06T23:05:12.979Z,12.19
2022-09-06T23:08:01.642Z,12.25
2022-09-06T23:10:47.545Z,11.97
2022-09-06T23:13:34.317Z,12.04
2022-09-06T23:16:19.848Z,12.00
2022-09-06T23:19:06.326Z,11.87
2022-09-06T23:21:52.273Z,11.93
2022-09-06T23:24:39.609Z,11.85
2022-09-06T23:27:25.510Z,11.82
2022-09-06T23:30:11.633Z,11.91
2022-09-06T23:32:57.631Z,11.91
2022-09-06T23:35:43.839Z,11.75
2022-09-06T23:38:29.293Z,11.62
2022-09-06T23:41:15.612Z,11.56
2022-09-06T23:44:01.843Z,11.65
2022-09-06T23:46:48.199Z,11.58
2022-09-06T23:49:34.383Z,11.36
2022-09-06T23:52:20.378Z,11.38
2022-09-06T23:55:06.374Z,11.46
2022-09-06T23:57:52.581Z,11.46
